createdAt,value
2022-10-12T00:01:15.623Z,76.27
2022-10-12T00:03:41.894Z,71.20
2022-10-12T00:06:12.042Z,74.13
2022-10-12T00:08:40.552Z,72.60
2022-10-12T00:11:10.198Z,71.30
2022-10-12T00:13:36.618Z,71.43
2022-10-12T00:16:05.370Z,74.57
2022-10-12T00:18:33.055Z,66.47
2022-10-12T00:21:10.856Z,69.80
2022-10-12T00:23:37.958Z,72.53
2022-10-12T00:26:06.682Z,76.03
2022-10-12T00:28:34.099Z,75.17
2022-10-12T00:31:01.482Z,68.23
2022-10-12T00:33:28.597Z,71.00
2022-10-12T00:35:54.904Z,67.70
2022-10-12T00:38:22.182Z,66.50
2022-10-12T00:40:48.770Z,71.33
2022-10-12T00:43:44.988Z,68.70
2022-10-12T00:46:19.902Z,69.00
2022-10-12T00:48:51.932Z,65.77
2022-10-12T00:51:19.443Z,62.53
2022-10-12T00:53:51.449Z,75.80
2022-10-12T00:56:21.779Z,63.57
2022-10-12T00:58:49.452Z,68.07
2022-10-12T01:01:16.906Z,69.67
2022-10-12T01:03:43.739Z,71.17
2022-10-12T01:06:10.535Z,64.30
2022-10-12T01:08:37.447Z,61.77
2022-10-12T01:11:04.103Z,55.67
2022-10-12T01:13:31.780Z,65.50
2022-10-12T01:16:21.788Z,61.13
2022-10-12T01:19:15.929Z,58.63
2022-10-12T01:21:50.594Z,52.90
2022-10-12T01:24:31.969Z,55.30
2022-10-12T01:27:23.556Z,63.13
2022-10-12T01:29:58.804Z,52.30
2022-10-12T01:32:34.084Z,54.73
2022-10-12T01:35:41.286Z,48.03
2022-10-12T01:38:15.336Z,56.63
2022-10-12T01:40:47.145Z,52.90
2022-10-12T01:43:17.379Z,50.97
2022-10-12T01:45:43.943Z,49.83
2022-10-12T01:48:10.234Z,52.60
2022-10-12T01:50:49.168Z,50.23
2022-10-12T01:53:35.752Z,49.03
2022-10-12T01:56:22.069Z,51.57
2022-10-12T01:58:57.576Z,54.80
2022-10-12T02:02:02.619Z,58.57
2022-10-12T02:04:34.241Z,54.77
2022-10-12T02:07:06.029Z,49.17
2022-10-12T02:09:35.129Z,52.30
2022-10-12T02:12:07.431Z,53.27
2022-10-12T02:14:41.319Z,48.40
2022-10-12T02:17:12.815Z,61.40
2022-10-12T02:19:43.934Z,61.57
2022-10-12T02:22:12.467Z,61.43
2022-10-12T02:24:43.651Z,51.33
2022-10-12T02:27:13.660Z,52.40
2022-10-12T02:29:42.512Z,53.00
2022-10-12T02:32:27.199Z,48.53
2022-10-12T02:35:07.489Z,48.60
2022-10-12T02:37:44.473Z,53.43
2022-10-12T02:40:34.325Z,48.13
2022-10-12T02:43:10.801Z,49.27
2022-10-12T02:45:44.350Z,48.63
2022-10-12T02:48:15.942Z,49.33
2022-10-12T02:50:43.070Z,47.70
2022-10-12T02:53:12.222Z,49.63
2022-10-12T02:55:50.525Z,44.97
2022-10-12T02:58:17.385Z,45.10
2022-10-12T03:00:44.476Z,47.83
2022-10-12T03:03:10.799Z,41.33
2022-10-12T03:05:37.202Z,50.27
2022-10-12T03:08:04.049Z,47.40
2022-10-12T03:10:30.666Z,41.93
2022-10-12T03:12:56.884Z,44.80
2022-10-12T03:15:23.330Z,44.83
2022-10-12T03:17:49.713Z,45.40
2022-10-12T03:20:15.937Z,49.67
2022-10-12T03:22:42.402Z,43.53
2022-10-12T03:25:08.690Z,41.80
2022-10-12T03:27:35.424Z,36.90
2022-10-12T03:30:01.995Z,35.10
2022-10-12T03:32:29.067Z,44.37
2022-10-12T03:34:56.013Z,44.73
2022-10-12T03:37:24.510Z,49.23
2022-10-12T03:39:50.682Z,48.07
2022-10-12T03:42:17.063Z,47.30
2022-10-12T03:44:43.276Z,46.80
2022-10-12T03:47:09.684Z,48.90
2022-10-12T03:49:35.880Z,48.20
2022-10-12T03:52:02.365Z,53.50
2022-10-12T03:54:28.867Z,56.00
2022-10-12T03:56:55.274Z,49.13
2022-10-12T03:59:21.419Z,56.20
2022-10-12T04:01:47.872Z,47.73
2022-10-12T04:04:14.331Z,58.57
2022-10-12T04:06:40.454Z,47.23
2022-10-12T04:09:06.860Z,55.70
2022-10-12T04:11:33.100Z,63.63
2022-10-12T04:13:59.915Z,57.47
2022-10-12T04:16:28.831Z,57.07
2022-10-12T04:18:57.306Z,57.67
2022-10-12T04:21:24.090Z,52.07
2022-10-12T04:23:50.597Z,63.47
2022-10-12T04:26:16.752Z,52.33
2022-10-12T04:28:42.950Z,55.63
2022-10-12T04:31:09.412Z,49.13
2022-10-12T04:33:35.623Z,48.53
2022-10-12T04:36:02.025Z,48.60
2022-10-12T04:38:28.330Z,55.40
2022-10-12T04:40:54.696Z,50.63
2022-10-12T04:43:20.810Z,51.37
2022-10-12T04:45:54.759Z,52.07
2022-10-12T04:48:21.692Z,52.50
2022-10-12T04:50:48.155Z,48.70
2022-10-12T04:53:14.513Z,54.63
2022-10-12T04:55:41.102Z,51.07
2022-10-12T04:58:07.392Z,47.20
2022-10-12T05:00:34.028Z,50.70
2022-10-12T05:03:00.357Z,50.10
2022-10-12T05:05:26.556Z,48.63
2022-10-12T05:07:53.025Z,49.67
2022-10-12T05:10:19.290Z,43.53
2022-10-12T05:12:45.813Z,44.27
2022-10-12T05:15:12.018Z,45.83
2022-10-12T05:17:39.021Z,38.63
2022-10-12T05:20:06.328Z,42.33
2022-10-12T05:22:32.688Z,45.47
2022-10-12T05:24:59.091Z,40.77
2022-10-12T05:27:25.463Z,43.93
2022-10-12T05:29:52.013Z,40.20
2022-10-12T05:32:18.510Z,39.60
2022-10-12T05:34:44.741Z,41.20
2022-10-12T05:37:11.181Z,35.53
2022-10-12T05:39:37.399Z,38.00
2022-10-12T05:42:04.435Z,35.70
2022-10-12T05:44:30.627Z,39.63
2022-10-12T05:46:57.145Z,36.43
2022-10-12T05:49:23.455Z,37.80
2022-10-12T05:51:50.053Z,39.53
2022-10-12T05:54:16.229Z,38.83
2022-10-12T05:56:42.731Z,38.77
2022-10-12T05:59:10.826Z,39.83
2022-10-12T06:01:37.398Z,38.37
2022-10-12T06:04:03.945Z,37.93
2022-10-12T06:06:30.549Z,43.00
2022-10-12T06:08:56.735Z,41.40
2022-10-12T06:11:23.302Z,39.97
2022-10-12T06:13:49.996Z,32.70
2022-10-12T06:16:16.417Z,46.63
2022-10-12T06:18:42.555Z,40.17
2022-10-12T06:21:28.852Z,41.60
2022-10-12T06:23:55.343Z,36.00
2022-10-12T06:26:24.300Z,44.13
2022-10-12T06:28:50.492Z,45.93
2022-10-12T06:31:16.972Z,48.90
2022-10-12T06:33:43.203Z,46.97
2022-10-12T06:36:09.761Z,52.37
2022-10-12T06:38:36.189Z,56.33
2022-10-12T06:41:02.701Z,47.20
2022-10-12T06:43:29.131Z,52.07
2022-10-12T06:46:00.319Z,62.83
2022-10-12T06:48:26.639Z,61.20
2022-10-12T06:50:55.755Z,61.10
2022-10-12T06:53:22.725Z,57.87
2022-10-12T06:55:49.246Z,62.80
2022-10-12T06:58:15.532Z,61.60
2022-10-12T07:00:42.147Z,69.03
2022-10-12T07:03:11.966Z,86.00
2022-10-12T07:05:38.378Z,106.07
2022-10-12T07:08:04.999Z,118.40
2022-10-12T07:10:31.463Z,117.27
2022-10-12T07:12:57.647Z,121.77
2022-10-12T07:15:24.104Z,99.33
2022-10-12T07:17:50.340Z,85.87
2022-10-12T07:20:16.685Z,74.10
2022-10-12T07:22:44.273Z,89.63
2022-10-12T07:25:10.921Z,91.63
2022-10-12T07:27:37.511Z,83.90
2022-10-12T07:30:04.688Z,71.07
2022-10-12T07:32:30.880Z,53.93
2022-10-12T07:34:57.241Z,49.33
2022-10-12T07:37:23.541Z,41.07
2022-10-12T07:39:49.712Z,45.17
2022-10-12T07:42:19.255Z,41.13
2022-10-12T07:44:48.676Z,38.80
2022-10-12T07:47:17.122Z,35.17
2022-10-12T07:49:43.479Z,32.40
2022-10-12T07:52:10.122Z,28.63
2022-10-12T07:54:36.344Z,30.27
2022-10-12T07:57:02.779Z,29.37
2022-10-12T07:59:29.010Z,43.90
2022-10-12T08:01:55.540Z,32.57
2022-10-12T08:04:21.833Z,33.13
2022-10-12T08:06:48.240Z,27.03
2022-10-12T08:09:14.420Z,29.87
2022-10-12T08:11:41.391Z,23.43
2022-10-12T08:14:17.121Z,21.77
2022-10-12T08:16:44.376Z,18.67
2022-10-12T08:19:11.479Z,20.77
2022-10-12T08:21:39.325Z,19.57
2022-10-12T08:24:06.015Z,20.97
2022-10-12T08:26:32.893Z,14.37
2022-10-12T08:29:00.974Z,17.03
2022-10-12T08:31:27.581Z,15.97
2022-10-12T08:33:56.252Z,17.27
2022-10-12T08:36:22.783Z,18.83
2022-10-12T08:38:53.435Z,19.63
2022-10-12T08:41:35.723Z,16.10
2022-10-12T08:44:07.802Z,15.63
2022-10-12T08:46:34.552Z,14.40
2022-10-12T08:49:05.471Z,18.33
2022-10-12T08:51:39.645Z,10.47
2022-10-12T08:54:13.951Z,10.73
2022-10-12T08:56:40.827Z,12.97
2022-10-12T08:59:16.267Z,13.90
2022-10-12T09:02:13.205Z,9.73
2022-10-12T09:04:53.313Z,13.03
2022-10-12T09:07:25.085Z,14.07
2022-10-12T09:10:10.352Z,10.03
2022-10-12T09:12:52.119Z,20.00
2022-10-12T09:15:26.776Z,10.57
2022-10-12T09:17:55.614Z,12.40
2022-10-12T09:20:21.756Z,12.97
2022-10-12T09:22:54.669Z,11.53
2022-10-12T09:25:26.939Z,10.97
2022-10-12T09:27:54.284Z,17.13
2022-10-12T09:30:20.796Z,7.60
2022-10-12T09:33:12.309Z,12.50
2022-10-12T09:35:45.773Z,9.20
2022-10-12T09:38:12.684Z,11.60
2022-10-12T09:40:39.804Z,9.37
2022-10-12T09:43:07.026Z,10.30
2022-10-12T09:45:35.150Z,12.20
2022-10-12T09:48:08.715Z,10.67
2022-10-12T09:50:55.193Z,8.50
2022-10-12T09:53:38.184Z,10.47
2022-10-12T09:56:10.727Z,10.90
2022-10-12T09:58:49.209Z,12.40
2022-10-12T10:01:30.448Z,12.57
2022-10-12T10:04:14.248Z,12.70
2022-10-12T10:06:45.906Z,8.40
2022-10-12T10:09:31.946Z,8.10
2022-10-12T10:12:22.015Z,11.20
2022-10-12T10:14:50.278Z,12.00
2022-10-12T10:17:33.254Z,8.27
2022-10-12T10:20:04.301Z,10.87
2022-10-12T10:22:31.587Z,8.40
2022-10-12T10:25:00.729Z,8.47
2022-10-12T10:27:37.066Z,6.03
2022-10-12T10:30:40.587Z,11.53
2022-10-12T10:33:16.692Z,6.07
2022-10-12T10:36:18.010Z,12.77
2022-10-12T10:38:56.758Z,9.13
2022-10-12T10:41:36.579Z,11.80
2022-10-12T10:44:04.896Z,11.67
2022-10-12T10:46:34.160Z,8.27
2022-10-12T10:49:06.444Z,8.03
2022-10-12T10:51:46.225Z,8.63
2022-10-12T10:54:23.499Z,11.57
2022-10-12T10:56:52.980Z,7.77
2022-10-12T10:59:28.671Z,7.53
2022-10-12T11:02:01.170Z,6.67
2022-10-12T11:04:34.439Z,7.30
2022-10-12T11:07:16.293Z,6.23
2022-10-12T11:09:47.168Z,10.00
2022-10-12T11:12:21.973Z,6.10
2022-10-12T11:14:51.741Z,4.33
2022-10-12T11:17:37.561Z,15.53
2022-10-12T11:20:22.563Z,7.07
2022-10-12T11:22:58.005Z,10.97
2022-10-12T11:25:28.756Z,4.37
2022-10-12T11:27:55.248Z,4.93
2022-10-12T11:30:24.908Z,4.30
2022-10-12T11:32:59.499Z,6.43
2022-10-12T11:35:31.821Z,8.67
2022-10-12T11:38:04.705Z,7.50
2022-10-12T11:41:02.494Z,6.37
2022-10-12T11:43:36.077Z,7.23
2022-10-12T11:46:09.585Z,8.50
2022-10-12T11:48:44.594Z,6.50
2022-10-12T11:51:12.097Z,8.30
2022-10-12T11:53:50.912Z,6.07
2022-10-12T11:56:25.172Z,7.30
2022-10-12T11:59:01.051Z,6.33
2022-10-12T12:02:01.165Z,8.27
2022-10-12T12:04:46.770Z,14.10
2022-10-12T12:07:22.613Z,9.47
2022-10-12T12:09:51.004Z,11.23
2022-10-12T12:12:27.069Z,6.73
2022-10-12T12:14:53.454Z,14.40
2022-10-12T12:17:19.728Z,7.47
2022-10-12T12:19:50.919Z,8.73
2022-10-12T12:22:22.996Z,7.43
2022-10-12T12:25:07.946Z,10.03
2022-10-12T12:27:51.183Z,5.37
2022-10-12T12:30:17.644Z,7.30
2022-10-12T12:33:05.334Z,10.37
2022-10-12T12:35:40.536Z,12.37
2022-10-12T12:38:12.677Z,8.37
2022-10-12T12:40:41.167Z,8.67
2022-10-12T12:43:21.250Z,7.13
2022-10-12T12:46:09.345Z,11.47
2022-10-12T12:48:38.531Z,8.47
2022-10-12T12:51:08.607Z,4.17
2022-10-12T12:53:44.435Z,7.23
2022-10-12T12:56:34.085Z,6.93
2022-10-12T12:59:21.770Z,4.93
2022-10-12T13:02:35.618Z,4.97
2022-10-12T13:05:39.591Z,8.77
2022-10-12T13:08:31.312Z,6.60
2022-10-12T13:11:00.420Z,3.67
2022-10-12T13:14:04.728Z,5.27
2022-10-12T13:19:43.728Z,11.10
2022-10-12T13:22:18.262Z,7.50
2022-10-12T13:24:49.684Z,8.17
2022-10-12T13:27:22.469Z,7.90
2022-10-12T13:29:59.714Z,3.70
2022-10-12T13:32:38.064Z,4.87
2022-10-12T13:35:13.769Z,10.60
2022-10-12T13:37:40.059Z,8.07
2022-10-12T13:40:31.029Z,5.47
2022-10-12T13:43:22.193Z,10.50
2022-10-12T13:45:49.042Z,11.40
2022-10-12T13:48:34.331Z,5.03
2022-10-12T13:51:21.938Z,7.90
2022-10-12T13:53:48.373Z,9.03
2022-10-12T13:56:19.019Z,10.50
2022-10-12T13:58:46.053Z,9.37
2022-10-12T14:01:13.153Z,5.90
2022-10-12T14:03:42.693Z,9.53
2022-10-12T14:06:38.304Z,8.80
2022-10-12T14:09:13.750Z,32.63
2022-10-12T14:11:41.658Z,21.53
2022-10-12T14:14:35.689Z,13.13
2022-10-12T14:17:02.611Z,9.37
2022-10-12T14:19:46.133Z,11.30
2022-10-12T14:22:20.247Z,8.70
2022-10-12T14:24:47.232Z,7.77
2022-10-12T14:27:27.183Z,7.70
2022-10-12T14:30:06.527Z,13.37
2022-10-12T14:32:40.650Z,8.97
2022-10-12T14:35:10.229Z,5.03
2022-10-12T14:37:39.253Z,6.30
2022-10-12T14:40:38.856Z,8.43
2022-10-12T14:43:07.315Z,8.97
2022-10-12T14:45:34.779Z,13.63
2022-10-12T14:48:02.518Z,9.30
2022-10-12T14:50:31.178Z,9.50
2022-10-12T14:53:04.105Z,12.43
2022-10-12T14:55:33.090Z,15.00
2022-10-12T14:57:59.935Z,9.70
2022-10-12T15:00:26.240Z,13.57
2022-10-12T15:02:53.189Z,12.87
2022-10-12T15:05:23.234Z,11.67
2022-10-12T15:07:50.471Z,22.87
2022-10-12T15:10:19.106Z,72.90
2022-10-12T15:12:45.646Z,42.07
2022-10-12T15:15:38.409Z,27.60
2022-10-12T15:18:05.966Z,10.63
2022-10-12T15:20:32.765Z,10.60
2022-10-12T15:22:59.632Z,49.90
2022-10-12T15:25:34.604Z,94.37
2022-10-12T15:28:02.604Z,90.67
2022-10-12T15:30:29.098Z,103.27
2022-10-12T15:32:55.655Z,33.03
2022-10-12T15:35:25.063Z,25.40
2022-10-12T15:37:55.799Z,20.70
2022-10-12T15:40:22.378Z,24.17
2022-10-12T15:42:49.100Z,76.60
2022-10-12T15:45:22.415Z,82.70
2022-10-12T15:47:50.703Z,99.47
2022-10-12T15:50:19.676Z,116.53
2022-10-12T15:52:46.251Z,118.07
2022-10-12T15:55:21.613Z,71.50
2022-10-12T15:57:49.649Z,46.57
2022-10-12T16:00:17.843Z,52.07
2022-10-12T16:02:44.617Z,34.07
2022-10-12T16:05:25.012Z,24.53
2022-10-12T16:07:52.866Z,28.07
2022-10-12T16:10:22.099Z,53.53
2022-10-12T16:12:50.859Z,42.43
2022-10-12T16:15:23.323Z,36.23
2022-10-12T16:17:51.587Z,46.67
2022-10-12T16:20:18.180Z,35.70
2022-10-12T16:22:45.025Z,21.07
2022-10-12T16:25:13.381Z,9.00
2022-10-12T16:27:39.882Z,13.50
2022-10-12T16:30:07.684Z,15.97
2022-10-12T16:32:35.120Z,21.30
2022-10-12T16:35:09.122Z,22.83
2022-10-12T16:37:35.517Z,36.40
2022-10-12T16:40:04.940Z,41.33
2022-10-12T16:42:31.683Z,28.23
2022-10-12T16:44:58.355Z,18.20
2022-10-12T16:47:27.422Z,28.17
2022-10-12T16:49:53.936Z,30.77
2022-10-12T16:52:23.869Z,11.37
2022-10-12T16:54:55.106Z,14.30
2022-10-12T16:57:22.759Z,13.70
2022-10-12T16:59:50.252Z,13.20
2022-10-12T17:02:18.714Z,32.50
2022-10-12T17:04:46.241Z,30.80
2022-10-12T17:07:13.397Z,49.87
2022-10-12T17:09:39.972Z,74.60
2022-10-12T17:12:06.362Z,81.23
2022-10-12T17:14:32.894Z,74.60
2022-10-12T17:16:59.703Z,68.87
2022-10-12T17:19:31.796Z,100.83
2022-10-12T17:22:00.246Z,116.97
2022-10-12T17:24:29.184Z,73.67
2022-10-12T17:26:56.467Z,48.53
2022-10-12T17:29:25.359Z,33.00
2022-10-12T17:31:54.877Z,26.60
2022-10-12T17:34:50.724Z,23.53
2022-10-12T17:37:17.011Z,45.97
2022-10-12T17:39:47.671Z,47.80
2022-10-12T17:42:14.314Z,56.63
2022-10-12T17:44:42.042Z,40.90
2022-10-12T17:47:08.668Z,47.03
2022-10-12T17:49:35.120Z,46.50
2022-10-12T17:52:03.385Z,46.27
2022-10-12T17:54:29.855Z,46.13
2022-10-12T17:56:56.638Z,18.43
2022-10-12T17:59:23.806Z,22.00
2022-10-12T18:01:51.828Z,35.63
2022-10-12T18:04:19.715Z,59.90
2022-10-12T18:06:46.225Z,52.93
2022-10-12T18:09:12.943Z,164.30
2022-10-12T18:11:39.978Z,64.27
2022-10-12T18:14:08.736Z,62.67
2022-10-12T18:16:35.708Z,103.87
2022-10-12T18:19:07.605Z,59.80
2022-10-12T18:21:33.981Z,63.40
2022-10-12T18:24:05.597Z,37.93
2022-10-12T18:26:35.008Z,29.40
2022-10-12T18:29:01.714Z,45.90
2022-10-12T18:31:29.337Z,53.10
2022-10-12T18:33:57.548Z,68.87
2022-10-12T18:36:24.656Z,70.67
2022-10-12T18:38:52.247Z,58.00
2022-10-12T18:41:21.874Z,45.67
2022-10-12T18:43:54.686Z,31.70
2022-10-12T18:46:25.087Z,74.00
2022-10-12T18:48:52.519Z,76.97
2022-10-12T18:51:21.110Z,62.50
2022-10-12T18:53:47.936Z,63.20
2022-10-12T18:56:16.650Z,46.37
2022-10-12T18:58:43.269Z,34.67
2022-10-12T19:01:16.192Z,47.73
2022-10-12T19:03:46.906Z,48.60
2022-10-12T19:06:16.718Z,50.30
2022-10-12T19:08:43.653Z,46.77
2022-10-12T19:11:12.819Z,48.07
2022-10-12T19:13:41.784Z,37.87
2022-10-12T19:16:14.638Z,45.43
2022-10-12T19:18:42.387Z,48.83
2022-10-12T19:21:19.978Z,50.93
2022-10-12T19:23:46.675Z,57.70
2022-10-12T19:26:17.668Z,55.47
2022-10-12T19:28:45.499Z,51.80
2022-10-12T19:31:19.876Z,44.77
2022-10-12T19:33:46.993Z,49.90
2022-10-12T19:36:16.331Z,34.87
2022-10-12T19:38:45.311Z,37.07
2022-10-12T19:41:12.664Z,28.80
2022-10-12T19:43:39.840Z,26.70
2022-10-12T19:46:11.538Z,26.10
2022-10-12T19:48:41.348Z,24.87
2022-10-12T19:51:11.627Z,57.97
2022-10-12T19:53:39.798Z,16.43
2022-10-12T19:56:09.035Z,17.90
2022-10-12T19:58:35.956Z,23.00
2022-10-12T20:01:05.682Z,22.27
2022-10-12T20:03:34.268Z,18.03
2022-10-12T20:06:08.670Z,25.30
2022-10-12T20:08:38.260Z,20.47
2022-10-12T20:11:04.731Z,16.57
2022-10-12T20:13:31.746Z,20.90
2022-10-12T20:15:58.757Z,25.27
2022-10-12T20:18:26.575Z,39.27
2022-10-12T20:20:53.889Z,50.83
2022-10-12T20:23:21.447Z,54.13
2022-10-12T20:25:51.126Z,41.13
2022-10-12T20:28:18.993Z,32.73
2022-10-12T20:30:46.276Z,37.37
2022-10-12T20:33:13.562Z,35.90
2022-10-12T20:35:48.401Z,36.10
2022-10-12T20:38:16.505Z,45.33
2022-10-12T20:40:43.378Z,44.53
2022-10-12T20:43:10.079Z,54.77
2022-10-12T20:45:36.971Z,46.27
2022-10-12T20:48:04.251Z,39.60
2022-10-12T20:50:30.849Z,36.97
2022-10-12T20:52:57.577Z,45.87
2022-10-12T20:55:24.036Z,47.97
2022-10-12T20:57:50.504Z,49.23
2022-10-12T21:00:17.152Z,60.63
2022-10-12T21:02:43.579Z,61.53
2022-10-12T21:05:09.853Z,50.70
2022-10-12T21:07:36.578Z,51.23
2022-10-12T21:10:03.315Z,42.53
2022-10-12T21:12:30.623Z,48.70
2022-10-12T21:14:57.208Z,47.27
2022-10-12T21:17:23.446Z,76.70
2022-10-12T21:19:51.427Z,81.60
2022-10-12T21:22:18.196Z,63.07
2022-10-12T21:24:44.594Z,58.43
2022-10-12T21:27:10.838Z,49.23
2022-10-12T21:29:37.267Z,55.97
2022-10-12T21:32:03.798Z,55.27
2022-10-12T21:34:30.001Z,56.10
2022-10-12T21:36:56.459Z,55.80
2022-10-12T21:39:22.681Z,71.97
2022-10-12T21:41:48.798Z,88.60
2022-10-12T21:44:15.162Z,106.93
2022-10-12T21:46:41.906Z,87.17
2022-10-12T21:49:10.373Z,90.37
2022-10-12T21:51:38.012Z,86.73
2022-10-12T21:54:05.245Z,86.57
2022-10-12T21:56:34.462Z,78.30
2022-10-12T21:59:04.121Z,81.23
2022-10-12T22:01:36.249Z,75.83
2022-10-12T22:04:05.912Z,77.07
2022-10-12T22:06:33.395Z,83.90
2022-10-12T22:09:04.281Z,70.03
2022-10-12T22:11:32.712Z,60.13
2022-10-12T22:14:05.059Z,52.90
2022-10-12T22:16:34.615Z,56.03
2022-10-12T22:19:03.041Z,64.23
2022-10-12T22:21:33.471Z,60.47
2022-10-12T22:24:01.320Z,45.07
2022-10-12T22:26:28.356Z,46.57
2022-10-12T22:28:57.101Z,38.67
2022-10-12T22:31:24.254Z,42.07
2022-10-12T22:33:51.418Z,37.30
2022-10-12T22:36:17.732Z,37.80
2022-10-12T22:38:45.225Z,36.93
2022-10-12T22:41:14.481Z,39.77
2022-10-12T22:43:48.696Z,40.20
2022-10-12T22:46:15.886Z,48.40
2022-10-12T22:48:42.316Z,49.50
2022-10-12T22:51:13.668Z,48.20
2022-10-12T22:53:39.813Z,50.43
2022-10-12T22:56:14.379Z,42.77
2022-10-12T22:58:40.909Z,41.10
2022-10-12T23:01:09.973Z,48.47
2022-10-12T23:03:36.648Z,45.23
2022-10-12T23:06:10.592Z,48.60
2022-10-12T23:08:37.071Z,44.40
2022-10-12T23:11:06.435Z,40.63
2022-10-12T23:13:36.429Z,39.00
2022-10-12T23:16:07.177Z,35.77
2022-10-12T23:18:33.571Z,44.20
2022-10-12T23:21:03.202Z,38.90
2022-10-12T23:23:29.863Z,45.13
2022-10-12T23:26:05.157Z,37.53
2022-10-12T23:28:32.219Z,39.77
2022-10-12T23:30:58.639Z,37.27
2022-10-12T23:33:24.879Z,40.73
2022-10-12T23:35:59.258Z,57.87
2022-10-12T23:38:29.798Z,63.10
2022-10-12T23:40:56.558Z,79.93
2022-10-12T23:43:22.876Z,68.93
2022-10-12T23:45:49.485Z,59.40
2022-10-12T23:48:16.024Z,60.23
2022-10-12T23:50:46.272Z,64.53
2022-10-12T23:53:12.925Z,72.30
2022-10-12T23:55:39.410Z,58.13
2022-10-12T23:58:06.459Z,65.40
